createdAt,value
2018-08-30T00:00:37.175Z,130.9296
2018-08-30T00:01:42.339Z,131.6879
2018-08-30T00:02:47.234Z,131.4342
2018-08-30T00:03:52.815Z,131.1832
2018-08-30T00:04:58.104Z,132.1926
2018-08-30T00:06:02.986Z,132.1926
2018-08-30T00:07:08.841Z,132.1926
2018-08-30T00:08:13.239Z,131.6879
2018-08-30T00:09:18.183Z,131.1832
2018-08-30T00:10:23.713Z,131.4342
2018-08-30T00:11:28.861Z,130.6759
2018-08-30T00:12:34.287Z,130.9296
2018-08-30T00:13:39.504Z,131.4342
2018-08-30T00:14:44.660Z,130.4222
2018-08-30T00:15:49.599Z,129.7484
2018-08-30T00:16:53.943Z,129.9176
2018-08-30T00:17:59.143Z,129.9176
2018-08-30T00:19:03.948Z,129.9176
2018-08-30T00:20:08.833Z,129.4948
2018-08-30T00:21:13.730Z,129.7484
2018-08-30T00:22:18.847Z,129.4948
2018-08-30T00:23:24.037Z,129.2438
2018-08-30T00:24:29.611Z,128.57
2018-08-30T00:25:34.776Z,128.9901
2018-08-30T00:26:39.941Z,129.4948
2018-08-30T00:27:45.545Z,128.57
2018-08-30T00:28:50.698Z,129.7484
2018-08-30T00:29:55.906Z,129.2438
2018-08-30T00:31:01.695Z,128.7364
2018-08-30T00:32:06.594Z,128.7364
2018-08-30T00:33:11.560Z,129.4948
2018-08-30T00:34:16.807Z,128.7364
2018-08-30T00:35:21.407Z,129.7484
2018-08-30T00:36:41.321Z,128.9901
2018-08-30T00:37:46.215Z,129.7484
2018-08-30T00:38:51.701Z,129.4948
2018-08-30T00:39:56.347Z,128.7364
2018-08-30T00:41:01.231Z,128.9901
2018-08-30T00:42:06.494Z,128.57
2018-08-30T00:43:12.238Z,128.3163
2018-08-30T00:44:16.867Z,128.0626
2018-08-30T00:45:22.327Z,128.3163
2018-08-30T00:46:42.692Z,128.3163
2018-08-30T00:47:47.881Z,127.809
2018-08-30T00:48:53.709Z,127.809
2018-08-30T00:49:59.145Z,127.3043
2018-08-30T00:51:04.107Z,127.3043
2018-08-30T00:52:09.534Z,128.0626
2018-08-30T00:53:15.017Z,128.3163
2018-08-30T00:54:19.619Z,128.3163
2018-08-30T00:55:24.798Z,127.809
2018-08-30T00:56:30.249Z,127.809
2018-08-30T00:57:36.187Z,126.8842
2018-08-30T00:58:41.452Z,127.809
2018-08-30T00:59:46.326Z,127.809
2018-08-30T01:00:52.159Z,127.809
2018-08-30T01:01:57.417Z,127.809
2018-08-30T01:03:02.570Z,126.1258
2018-08-30T01:04:07.769Z,126.6305
2018-08-30T01:05:12.633Z,127.1352
2018-08-30T01:06:18.084Z,127.1352
2018-08-30T01:07:23.925Z,127.3043
2018-08-30T01:08:29.135Z,128.3163
2018-08-30T01:09:34.687Z,128.3163
2018-08-30T01:10:39.597Z,127.558
2018-08-30T01:11:44.511Z,127.3043
2018-08-30T01:12:50.235Z,126.8842
2018-08-30T01:13:55.193Z,127.3043
2018-08-30T01:14:59.815Z,126.8842
2018-08-30T01:16:04.962Z,126.1258
2018-08-30T01:17:10.405Z,126.8842
2018-08-30T01:18:15.928Z,126.1258
2018-08-30T01:19:21.828Z,126.1258
2018-08-30T01:20:27.011Z,126.1258
2018-08-30T01:21:32.653Z,126.8842
2018-08-30T01:22:37.813Z,125.452
2018-08-30T01:23:43.251Z,125.6185
2018-08-30T01:24:48.829Z,125.8722
2018-08-30T01:25:53.689Z,125.6185
2018-08-30T01:26:59.154Z,125.452
2018-08-30T01:28:04.653Z,124.9447
2018-08-30T01:29:10.092Z,125.6185
2018-08-30T01:30:15.624Z,125.6185
2018-08-30T01:31:21.504Z,125.1984
2018-08-30T01:32:26.750Z,125.452
2018-08-30T01:33:32.262Z,124.6937
2018-08-30T01:34:37.423Z,125.1984
2018-08-30T01:35:42.122Z,124.44
2018-08-30T01:36:47.676Z,124.6937
2018-08-30T01:37:52.864Z,124.6937
2018-08-30T01:38:58.357Z,124.9447
2018-08-30T01:40:03.188Z,124.44
2018-08-30T01:41:08.168Z,124.1864
2018-08-30T01:42:13.665Z,124.6937
2018-08-30T01:43:19.082Z,124.6937
2018-08-30T01:44:24.273Z,124.6937
2018-08-30T01:45:29.847Z,124.1864
2018-08-30T01:46:35.024Z,123.7662
2018-08-30T01:47:40.502Z,123.7662
2018-08-30T01:48:45.688Z,124.0199
2018-08-30T01:49:50.569Z,124.1864
2018-08-30T01:50:56.063Z,123.7662
2018-08-30T01:52:01.459Z,123.0079
2018-08-30T01:53:06.356Z,123.7662
2018-08-30T01:54:11.523Z,123.5126
2018-08-30T01:55:16.933Z,123.0079
2018-08-30T01:56:22.083Z,122.7542
2018-08-30T01:57:28.045Z,122.2495
2018-08-30T01:58:32.930Z,121.9985
2018-08-30T01:59:38.365Z,121.9985
2018-08-30T02:00:44.066Z,121.3247
2018-08-30T02:01:49.230Z,120.8174
2018-08-30T02:02:54.732Z,120.5664
2018-08-30T02:04:00.475Z,119.3034
2018-08-30T02:05:05.973Z,120.3127
2018-08-30T02:06:11.123Z,119.0497
2018-08-30T02:07:16.539Z,119.3034
2018-08-30T02:08:21.412Z,118.7987
2018-08-30T02:09:41.675Z,119.0497
2018-08-30T02:10:47.175Z,118.545
2018-08-30T02:11:52.092Z,118.3759
2018-08-30T02:12:57.076Z,118.3759
2018-08-30T02:14:02.276Z,117.6176
2018-08-30T02:15:07.451Z,117.6176
2018-08-30T02:16:12.865Z,117.8712
2018-08-30T02:17:18.312Z,117.3665
2018-08-30T02:18:23.483Z,117.6176
2018-08-30T02:19:29.453Z,116.8618
2018-08-30T02:20:34.958Z,116.3572
2018-08-30T02:21:40.591Z,116.8618
2018-08-30T02:22:45.763Z,116.8618
2018-08-30T02:23:50.664Z,116.6082
2018-08-30T02:24:56.198Z,116.6082
2018-08-30T02:26:01.095Z,117.3665
2018-08-30T02:27:05.970Z,116.3572
2018-08-30T02:28:11.801Z,116.3572
2018-08-30T02:29:16.759Z,116.3572
2018-08-30T02:30:21.627Z,116.1035
2018-08-30T02:31:27.034Z,116.1035
2018-08-30T02:32:31.672Z,115.8498
2018-08-30T02:33:37.510Z,115.8498
2018-08-30T02:34:42.958Z,115.8498
2018-08-30T02:35:48.111Z,115.4297
2018-08-30T02:36:52.959Z,115.6834
2018-08-30T02:37:58.209Z,115.4297
2018-08-30T02:39:02.343Z,115.4297
2018-08-30T02:40:07.468Z,114.925
2018-08-30T02:41:12.703Z,114.4203
2018-08-30T02:42:17.935Z,114.4203
2018-08-30T02:43:23.358Z,114.4203
2018-08-30T02:44:28.807Z,114.4203
2018-08-30T02:45:34.252Z,114.6714
2018-08-30T02:46:39.712Z,113.4929
2018-08-30T02:47:44.588Z,115.1787
2018-08-30T02:48:50.181Z,114.4203
2018-08-30T02:49:55.508Z,114.925
2018-08-30T02:51:00.675Z,114.6714
2018-08-30T02:52:06.175Z,114.4203
2018-08-30T02:53:11.728Z,115.4297
2018-08-30T02:54:16.888Z,115.1787
2018-08-30T02:55:22.015Z,115.6834
2018-08-30T02:56:27.259Z,114.4203
2018-08-30T02:57:33.110Z,115.4297
2018-08-30T02:58:38.267Z,115.1787
2018-08-30T02:59:43.791Z,114.925
2018-08-30T03:00:48.943Z,114.4203
2018-08-30T03:01:54.114Z,115.1787
2018-08-30T03:02:59.423Z,114.1667
2018-08-30T03:04:05.002Z,112.8217
2018-08-30T03:05:10.159Z,113.9157
2018-08-30T03:06:15.459Z,114.1667
2018-08-30T03:07:20.592Z,114.4203
2018-08-30T03:08:25.771Z,115.1787
2018-08-30T03:09:31.239Z,114.6714
2018-08-30T03:10:36.459Z,113.9157
2018-08-30T03:11:41.732Z,114.1667
2018-08-30T03:12:46.875Z,114.1667
2018-08-30T03:13:52.096Z,113.662
2018-08-30T03:14:57.114Z,114.1667
2018-08-30T03:16:01.509Z,113.662
2018-08-30T03:17:06.748Z,114.6714
2018-08-30T03:18:12.346Z,113.662
2018-08-30T03:19:17.596Z,113.662
2018-08-30T03:20:22.865Z,114.4203
2018-08-30T03:21:27.973Z,113.2419
2018-08-30T03:22:33.244Z,114.6714
2018-08-30T03:23:38.878Z,113.9157
2018-08-30T03:24:44.328Z,113.9157
2018-08-30T03:25:49.599Z,113.9157
2018-08-30T03:26:54.090Z,114.1667
2018-08-30T03:27:59.890Z,113.9157
2018-08-30T03:29:04.645Z,113.662
2018-08-30T03:30:10.755Z,114.4203
2018-08-30T03:31:17.079Z,113.4929
2018-08-30T03:32:22.085Z,112.9882
2018-08-30T03:33:28.551Z,113.4929
2018-08-30T03:34:34.100Z,113.4929
2018-08-30T03:35:38.749Z,112.9882
2018-08-30T03:36:44.498Z,113.9157
2018-08-30T03:37:49.781Z,112.5681
2018-08-30T03:38:55.090Z,112.8217
2018-08-30T03:40:00.316Z,112.8217
2018-08-30T03:41:05.605Z,112.9882
2018-08-30T03:42:11.163Z,112.3171
2018-08-30T03:43:16.715Z,112.8217
2018-08-30T03:44:21.714Z,113.662
2018-08-30T03:45:41.589Z,112.5681
2018-08-30T03:46:47.263Z,112.8217
2018-08-30T03:47:52.946Z,112.3171
2018-08-30T03:48:58.439Z,112.3171
2018-08-30T03:50:03.408Z,112.0634
2018-08-30T03:51:08.416Z,112.5681
2018-08-30T03:52:13.690Z,112.5681
2018-08-30T03:53:19.302Z,112.5681
2018-08-30T03:54:24.669Z,111.8124
2018-08-30T03:55:30.397Z,112.0634
2018-08-30T03:56:35.390Z,111.5587
2018-08-30T03:57:40.752Z,111.3051
2018-08-30T03:58:45.727Z,112.0634
2018-08-30T03:59:51.052Z,111.054
2018-08-30T04:00:56.163Z,111.5587
2018-08-30T04:02:01.415Z,111.8124
2018-08-30T04:03:06.678Z,111.3051
2018-08-30T04:04:11.823Z,111.3051
2018-08-30T04:05:17.555Z,111.054
2018-08-30T04:06:23.101Z,111.8124
2018-08-30T04:07:28.721Z,110.803
2018-08-30T04:08:34.288Z,110.2957
2018-08-30T04:09:39.941Z,111.3051
2018-08-30T04:10:44.689Z,111.5587
2018-08-30T04:11:49.958Z,110.3802
2018-08-30T04:12:55.209Z,110.3802
2018-08-30T04:14:00.467Z,111.054
2018-08-30T04:15:05.477Z,110.803
2018-08-30T04:16:10.905Z,111.054
2018-08-30T04:17:16.195Z,110.1292
2018-08-30T04:18:20.913Z,110.3802
2018-08-30T04:19:25.900Z,109.8756
2018-08-30T04:20:30.870Z,109.8756
2018-08-30T04:21:36.416Z,109.3709
2018-08-30T04:22:42.049Z,110.1292
2018-08-30T04:23:47.038Z,110.1292
2018-08-30T04:24:52.305Z,111.3051
2018-08-30T04:25:57.997Z,110.3802
2018-08-30T04:27:03.542Z,110.3802
2018-08-30T04:28:08.753Z,110.1292
2018-08-30T04:29:13.737Z,109.8756
2018-08-30T04:30:19.011Z,110.1292
2018-08-30T04:31:24.402Z,109.8756
2018-08-30T04:32:29.822Z,109.3709
2018-08-30T04:33:35.573Z,109.1199
2018-08-30T04:34:40.933Z,108.6152
2018-08-30T04:35:46.576Z,108.8662
2018-08-30T04:36:52.063Z,108.6152
2018-08-30T04:37:57.505Z,108.6152
2018-08-30T04:39:02.726Z,108.6152
2018-08-30T04:40:08.246Z,108.6152
2018-08-30T04:41:13.390Z,108.1105
2018-08-30T04:42:18.746Z,107.9414
2018-08-30T04:43:24.311Z,108.1105
2018-08-30T04:44:29.491Z,108.1105
2018-08-30T04:45:35.181Z,107.6877
2018-08-30T04:46:40.407Z,107.4367
2018-08-30T04:47:45.562Z,106.681
2018-08-30T04:48:50.367Z,107.6877
2018-08-30T04:49:55.854Z,107.1857
2018-08-30T04:51:00.841Z,107.1857
2018-08-30T04:52:05.554Z,107.4367
2018-08-30T04:53:10.996Z,106.681
2018-08-30T04:54:16.431Z,107.1857
2018-08-30T04:55:21.094Z,107.4367
2018-08-30T04:56:25.968Z,107.1857
2018-08-30T04:57:31.461Z,107.1857
2018-08-30T04:58:36.048Z,106.4273
2018-08-30T04:59:41.198Z,107.4367
2018-08-30T05:00:46.436Z,107.1857
2018-08-30T05:01:52.277Z,106.681
2018-08-30T05:03:11.932Z,106.1763
2018-08-30T05:04:17.921Z,105.9226
2018-08-30T05:05:23.352Z,106.1763
2018-08-30T05:06:28.641Z,106.1763
2018-08-30T05:07:33.825Z,106.1763
2018-08-30T05:08:39.280Z,105.6716
2018-08-30T05:09:44.969Z,106.1763
2018-08-30T05:10:50.241Z,105.6716
2018-08-30T05:11:55.395Z,105.6716
2018-08-30T05:13:00.269Z,105.5025
2018-08-30T05:14:05.425Z,105.7535
2018-08-30T05:15:10.314Z,105.5025
2018-08-30T05:16:16.110Z,105.5025
2018-08-30T05:17:20.128Z,105.7535
2018-08-30T05:18:40.213Z,104.5777
2018-08-30T05:19:45.092Z,105.2489
2018-08-30T05:20:50.539Z,104.9978
2018-08-30T05:21:56.430Z,104.5777
2018-08-30T05:23:01.090Z,103.822
2018-08-30T05:24:05.383Z,104.073
2018-08-30T05:25:11.077Z,103.3173
2018-08-30T05:26:16.268Z,103.3173
2018-08-30T05:27:21.435Z,103.3173
2018-08-30T05:28:27.001Z,103.5683
2018-08-30T05:29:32.469Z,103.3173
2018-08-30T05:30:37.503Z,103.5683
2018-08-30T05:31:42.365Z,104.073
2018-08-30T05:32:47.237Z,104.073
2018-08-30T05:33:52.572Z,104.073
2018-08-30T05:34:58.021Z,104.073
2018-08-30T05:36:02.925Z,103.3173
2018-08-30T05:37:08.410Z,102.6435
2018-08-30T05:38:13.285Z,103.822
2018-08-30T05:39:18.740Z,104.073
2018-08-30T05:40:24.236Z,103.3173
2018-08-30T05:41:29.671Z,103.5683
2018-08-30T05:42:35.075Z,104.073
2018-08-30T05:43:40.267Z,104.324
2018-08-30T05:44:46.039Z,103.822
2018-08-30T05:45:51.403Z,103.5683
2018-08-30T05:46:56.358Z,103.4019
2018-08-30T05:48:01.800Z,102.8972
2018-08-30T05:49:07.194Z,103.5683
2018-08-30T05:50:12.316Z,102.6435
2018-08-30T05:51:17.189Z,103.4019
2018-08-30T05:52:22.971Z,103.5683
2018-08-30T05:53:27.580Z,102.1388
2018-08-30T05:54:33.610Z,102.6435
2018-08-30T05:55:38.961Z,102.1388
2018-08-30T05:56:43.995Z,101.3831
2018-08-30T05:57:49.444Z,102.3925
2018-08-30T05:58:54.886Z,102.3925
2018-08-30T06:00:00.180Z,101.6342
2018-08-30T06:01:05.873Z,102.3925
2018-08-30T06:02:10.237Z,100.963
2018-08-30T06:03:15.145Z,101.8878
2018-08-30T06:04:20.301Z,101.1295
2018-08-30T06:05:25.530Z,101.8878
2018-08-30T06:06:30.959Z,101.6342
2018-08-30T06:07:35.833Z,101.1295
2018-08-30T06:08:41.290Z,101.3831
2018-08-30T06:09:46.843Z,101.1295
2018-08-30T06:10:51.753Z,101.1295
2018-08-30T06:11:57.211Z,101.6342
2018-08-30T06:13:02.847Z,100.4583
2018-08-30T06:14:08.102Z,101.8878
2018-08-30T06:15:13.731Z,101.6342
2018-08-30T06:16:19.413Z,100.963
2018-08-30T06:17:24.617Z,101.1295
2018-08-30T06:18:30.546Z,100.2073
2018-08-30T06:19:35.792Z,100.4583
2018-08-30T06:20:41.223Z,100.963
2018-08-30T06:21:46.657Z,100.4583
2018-08-30T06:22:51.943Z,100.4583
2018-08-30T06:23:57.104Z,100.7094
2018-08-30T06:25:02.287Z,100.2073
2018-08-30T06:26:07.164Z,100.2073
2018-08-30T06:27:12.144Z,99.9537
2018-08-30T06:28:17.564Z,98.9443
2018-08-30T06:29:23.613Z,98.9443
2018-08-30T06:30:29.127Z,99.7026
2018-08-30T06:31:34.282Z,98.9443
2018-08-30T06:32:39.911Z,98.7778
2018-08-30T06:33:45.321Z,98.5242
2018-08-30T06:34:51.445Z,98.9443
2018-08-30T06:35:56.763Z,97.853
2018-08-30T06:37:02.163Z,98.104
2018-08-30T06:38:07.617Z,98.5242
2018-08-30T06:39:12.818Z,98.104
2018-08-30T06:40:18.164Z,97.602
2018-08-30T06:41:23.318Z,98.104
2018-08-30T06:42:28.819Z,97.853
2018-08-30T06:43:33.699Z,97.602
2018-08-30T06:44:38.863Z,97.3483
2018-08-30T06:45:44.320Z,97.602
2018-08-30T06:46:49.190Z,97.853
2018-08-30T06:47:54.633Z,97.602
2018-08-30T06:49:01.070Z,97.0973
2018-08-30T06:50:06.989Z,97.602
2018-08-30T06:51:12.152Z,98.104
2018-08-30T06:52:17.565Z,97.3483
2018-08-30T06:53:23.111Z,97.853
2018-08-30T06:54:28.694Z,97.3483
2018-08-30T06:55:34.289Z,97.602
2018-08-30T06:56:39.776Z,98.104
2018-08-30T06:57:45.269Z,96.8463
2018-08-30T06:58:50.670Z,97.602
2018-08-30T06:59:55.896Z,97.3483
2018-08-30T07:01:01.553Z,97.3483
2018-08-30T07:02:06.997Z,97.0973
2018-08-30T07:03:12.737Z,97.3483
2018-08-30T07:04:18.702Z,97.853
2018-08-30T07:05:24.525Z,98.104
2018-08-30T07:06:29.977Z,97.0973
2018-08-30T07:07:34.900Z,96.9282
2018-08-30T07:08:40.055Z,97.0973
2018-08-30T07:09:45.484Z,96.4262
2018-08-30T07:10:50.688Z,97.0973
2018-08-30T07:11:55.868Z,96.6772
2018-08-30T07:13:01.469Z,96.4262
2018-08-30T07:14:06.375Z,96.6772
2018-08-30T07:15:11.555Z,96.4262
2018-08-30T07:16:16.813Z,96.1725
2018-08-30T07:17:21.732Z,96.4262
2018-08-30T07:18:42.173Z,95.9215
2018-08-30T07:19:47.382Z,95.6678
2018-08-30T07:20:52.262Z,95.1658
2018-08-30T07:21:57.982Z,95.4168
2018-08-30T07:23:02.903Z,95.4168
2018-08-30T07:24:08.396Z,94.9121
2018-08-30T07:25:13.556Z,94.9121
2018-08-30T07:26:18.753Z,94.9121
2018-08-30T07:27:24.191Z,94.7456
2018-08-30T07:28:44.516Z,94.6611
2018-08-30T07:29:49.689Z,94.492
2018-08-30T07:30:54.938Z,94.492
2018-08-30T07:31:59.795Z,94.9121
2018-08-30T07:33:04.961Z,94.492
2018-08-30T07:34:11.089Z,94.492
2018-08-30T07:35:16.713Z,94.241
2018-08-30T07:36:22.173Z,94.6611
2018-08-30T07:37:27.708Z,94.492
2018-08-30T07:38:33.186Z,94.241
2018-08-30T07:39:38.868Z,93.9873
2018-08-30T07:40:43.740Z,93.2316
2018-08-30T07:41:48.631Z,93.9873
2018-08-30T07:42:53.866Z,92.7296
2018-08-30T07:43:59.424Z,93.7363
2018-08-30T07:45:04.164Z,93.7363
2018-08-30T07:46:09.597Z,93.4853
2018-08-30T07:47:15.058Z,93.7363
2018-08-30T07:48:20.163Z,93.2316
2018-08-30T07:49:25.406Z,93.4853
2018-08-30T07:50:30.301Z,92.3094
2018-08-30T07:51:35.697Z,92.9806
2018-08-30T07:52:40.851Z,93.2316
2018-08-30T07:53:45.765Z,93.2316
2018-08-30T07:54:50.987Z,92.4759
2018-08-30T07:55:56.071Z,92.9806
2018-08-30T07:57:01.382Z,92.2249
2018-08-30T07:58:06.325Z,92.4759
2018-08-30T07:59:11.488Z,92.2249
2018-08-30T08:00:16.651Z,91.8047
2018-08-30T08:01:21.518Z,92.0558
2018-08-30T08:02:26.696Z,92.9806
2018-08-30T08:03:31.985Z,91.8047
2018-08-30T08:04:37.679Z,91.3001
2018-08-30T08:05:42.849Z,91.8047
2018-08-30T08:06:48.291Z,91.8047
2018-08-30T08:07:53.528Z,92.0558
2018-08-30T08:08:58.691Z,91.049
2018-08-30T08:10:04.148Z,91.049
2018-08-30T08:11:09.675Z,90.798
2018-08-30T08:12:14.324Z,91.5537
2018-08-30T08:13:19.785Z,90.5443
2018-08-30T08:14:24.976Z,91.3001
2018-08-30T08:15:30.123Z,90.798
2018-08-30T08:16:35.321Z,89.7887
2018-08-30T08:17:40.250Z,90.2933
2018-08-30T08:18:45.993Z,91.049
2018-08-30T08:19:51.497Z,91.5537
2018-08-30T08:20:56.676Z,90.5443
2018-08-30T08:22:01.895Z,90.798
2018-08-30T08:23:06.826Z,89.7887
2018-08-30T08:24:11.691Z,90.2933
2018-08-30T08:25:17.288Z,89.5376
2018-08-30T08:26:22.894Z,89.5376
2018-08-30T08:27:28.505Z,89.5376
2018-08-30T08:28:33.665Z,90.2933
2018-08-30T08:29:38.694Z,90.0423
2018-08-30T08:30:43.872Z,89.7887
2018-08-30T08:31:49.309Z,89.3685
2018-08-30T08:32:54.556Z,88.8665
2018-08-30T08:34:00.005Z,89.1175
2018-08-30T08:35:04.043Z,88.6128
2018-08-30T08:36:09.196Z,89.5376
2018-08-30T08:37:14.611Z,88.8665
2018-08-30T08:38:19.764Z,89.5376
2018-08-30T08:39:39.883Z,89.1175
2018-08-30T08:40:44.750Z,88.3618
2018-08-30T08:41:50.285Z,87.8598
2018-08-30T08:42:55.468Z,88.1108
2018-08-30T08:44:00.930Z,88.8665
2018-08-30T08:45:06.421Z,87.8598
2018-08-30T08:46:11.921Z,87.8598
2018-08-30T08:47:17.071Z,87.6061
2018-08-30T08:48:22.312Z,88.3618
2018-08-30T08:49:42.646Z,88.6128
2018-08-30T08:50:47.519Z,88.1108
2018-08-30T08:51:52.945Z,87.8598
2018-08-30T08:52:57.593Z,87.6061
2018-08-30T08:54:01.907Z,87.8598
2018-08-30T08:55:07.416Z,87.6061
2018-08-30T08:56:12.307Z,86.8504
2018-08-30T08:57:17.748Z,88.6128
2018-08-30T08:58:23.157Z,87.8598
2018-08-30T08:59:28.120Z,88.1108
2018-08-30T09:00:33.685Z,87.6061
2018-08-30T09:01:38.844Z,88.6128
2018-08-30T09:02:44.102Z,88.1108
2018-08-30T09:03:49.890Z,87.6061
2018-08-30T09:04:55.320Z,88.3618
2018-08-30T09:06:00.253Z,87.8598
2018-08-30T09:07:05.837Z,87.6061
2018-08-30T09:08:11.117Z,87.6061
2018-08-30T09:09:16.280Z,87.104
2018-08-30T09:10:21.705Z,87.8598
2018-08-30T09:11:27.138Z,87.3551
2018-08-30T09:12:32.316Z,87.8598
2018-08-30T09:13:37.890Z,87.3551
2018-08-30T09:14:43.370Z,86.6839
2018-08-30T09:15:49.080Z,87.6061
2018-08-30T09:16:54.243Z,87.6061
2018-08-30T09:17:59.200Z,86.8504
2018-08-30T09:19:04.949Z,87.104
2018-08-30T09:20:10.159Z,87.104
2018-08-30T09:21:15.625Z,87.104
2018-08-30T09:22:21.371Z,87.6061
2018-08-30T09:23:26.838Z,87.3551
2018-08-30T09:24:32.390Z,86.6839
2018-08-30T09:25:37.826Z,86.4303
2018-08-30T09:26:43.439Z,86.8504
2018-08-30T09:27:49.352Z,86.8504
2018-08-30T09:28:54.840Z,86.6839
2018-08-30T09:30:00.028Z,87.3551
2018-08-30T09:31:06.111Z,87.3551
2018-08-30T09:32:10.884Z,87.8598
2018-08-30T09:33:15.771Z,86.6839
2018-08-30T09:34:21.222Z,87.8598
2018-08-30T09:35:26.379Z,86.4303
2018-08-30T09:36:31.882Z,86.4303
2018-08-30T09:37:37.415Z,87.3551
2018-08-30T09:38:42.602Z,86.8504
2018-08-30T09:39:48.785Z,86.6839
2018-08-30T09:40:53.982Z,85.5081
2018-08-30T09:41:59.139Z,86.4303
2018-08-30T09:43:04.285Z,86.2638
2018-08-30T09:44:09.432Z,85.7591
2018-08-30T09:45:14.872Z,85.5081
2018-08-30T09:46:20.404Z,86.0128
2018-08-30T09:47:25.888Z,85.5081
2018-08-30T09:48:31.283Z,85.5081
2018-08-30T09:49:36.797Z,85.7591
2018-08-30T09:50:41.793Z,86.1792
2018-08-30T09:51:47.205Z,86.0128
2018-08-30T09:52:52.654Z,85.5081
2018-08-30T09:53:58.098Z,85.0034
2018-08-30T09:55:03.254Z,85.7591
2018-08-30T09:56:08.333Z,85.7591
2018-08-30T09:57:13.995Z,86.0128
2018-08-30T09:58:20.020Z,86.1792
2018-08-30T09:59:24.902Z,86.0128
2018-08-30T10:00:30.358Z,84.7524
2018-08-30T10:01:35.519Z,85.7591
2018-08-30T10:02:40.953Z,86.1792
2018-08-30T10:03:46.338Z,85.5081
2018-08-30T10:04:52.022Z,86.0128
2018-08-30T10:05:57.520Z,85.7591
2018-08-30T10:07:02.211Z,86.0128
2018-08-30T10:08:06.803Z,85.2571
2018-08-30T10:09:12.258Z,85.2571
2018-08-30T10:10:17.735Z,85.2571
2018-08-30T10:11:23.185Z,85.2571
2018-08-30T10:12:28.074Z,85.0034
2018-08-30T10:13:33.043Z,85.2571
2018-08-30T10:14:38.212Z,85.7591
2018-08-30T10:15:44.088Z,85.5081
2018-08-30T10:16:49.300Z,86.0128
2018-08-30T10:17:54.448Z,85.2571
2018-08-30T10:19:00.326Z,85.0034
2018-08-30T10:20:05.566Z,85.7591
2018-08-30T10:21:10.454Z,85.2571
2018-08-30T10:22:16.184Z,85.5081
2018-08-30T10:23:21.625Z,85.7591
2018-08-30T10:24:41.214Z,85.7591
2018-08-30T10:25:45.971Z,85.2571
2018-08-30T10:26:51.192Z,85.5081
2018-08-30T10:27:56.683Z,85.2571
2018-08-30T10:29:01.849Z,85.2571
2018-08-30T10:30:07.059Z,85.0034
2018-08-30T10:31:12.487Z,84.5014
2018-08-30T10:32:17.409Z,85.2571
2018-08-30T10:33:22.949Z,84.7524
2018-08-30T10:34:43.104Z,85.2571
2018-08-30T10:35:48.594Z,85.0034
2018-08-30T10:36:54.424Z,84.7524
2018-08-30T10:37:59.820Z,85.5081
2018-08-30T10:39:04.989Z,85.2571
2018-08-30T10:40:10.617Z,83.9967
2018-08-30T10:41:15.780Z,83.7457
2018-08-30T10:42:20.978Z,83.9967
2018-08-30T10:43:26.837Z,84.7524
2018-08-30T10:44:32.008Z,84.5014
2018-08-30T10:45:37.033Z,83.7457
2018-08-30T10:46:41.977Z,83.4946
2018-08-30T10:47:47.161Z,83.9967
2018-08-30T10:48:52.429Z,83.9967
2018-08-30T10:49:58.598Z,82.99
2018-08-30T10:51:03.665Z,82.99
2018-08-30T10:52:08.823Z,83.7457
2018-08-30T10:53:14.357Z,83.9967
2018-08-30T10:54:19.513Z,82.7389
2018-08-30T10:55:24.767Z,82.99
2018-08-30T10:56:30.097Z,83.4946
2018-08-30T10:57:35.260Z,83.4946
2018-08-30T10:58:40.762Z,82.8235
2018-08-30T10:59:45.983Z,82.99
2018-08-30T11:00:50.843Z,82.4034
2018-08-30T11:01:56.097Z,82.6544
2018-08-30T11:03:00.958Z,82.4034
2018-08-30T11:04:06.356Z,82.7389
2018-08-30T11:05:11.637Z,82.6544
2018-08-30T11:06:17.072Z,82.7389
2018-08-30T11:07:21.915Z,83.9967
2018-08-30T11:08:26.861Z,83.4946
2018-08-30T11:09:32.805Z,82.6544
2018-08-30T11:10:37.683Z,83.4946
2018-08-30T11:11:43.189Z,82.7389
2018-08-30T11:12:48.801Z,82.4034
2018-08-30T11:13:54.148Z,83.7457
2018-08-30T11:14:58.785Z,83.4946
2018-08-30T11:16:03.918Z,82.7389
2018-08-30T11:17:09.175Z,84.5014
2018-08-30T11:18:14.667Z,83.7457
2018-08-30T11:19:20.509Z,84.2504
2018-08-30T11:20:25.698Z,83.4946
2018-08-30T11:21:31.494Z,83.4946
2018-08-30T11:22:36.924Z,82.6544
2018-08-30T11:23:41.908Z,84.2504
2018-08-30T11:24:47.257Z,82.6544
2018-08-30T11:25:51.874Z,82.8235
2018-08-30T11:26:57.403Z,83.7457
2018-08-30T11:28:02.091Z,82.7389
2018-08-30T11:29:06.991Z,83.4946
2018-08-30T11:30:11.973Z,82.6544
2018-08-30T11:31:17.375Z,82.7389
2018-08-30T11:32:22.546Z,82.7389
2018-08-30T11:33:28.667Z,82.7389
2018-08-30T11:34:34.107Z,82.6544
2018-08-30T11:35:39.349Z,82.4034
2018-08-30T11:36:45.219Z,83.4946
2018-08-30T11:37:50.373Z,82.4034
2018-08-30T11:38:55.536Z,82.4034
2018-08-30T11:40:00.505Z,82.7389
2018-08-30T11:41:05.936Z,82.99
2018-08-30T11:42:10.839Z,82.99
2018-08-30T11:43:16.886Z,82.4034
2018-08-30T11:44:22.548Z,83.4946
2018-08-30T11:45:42.874Z,82.7389
2018-08-30T11:46:48.118Z,82.7389
2018-08-30T11:47:53.387Z,82.6544
2018-08-30T11:48:58.908Z,82.99
2018-08-30T11:50:03.564Z,83.4946
2018-08-30T11:51:08.591Z,82.6544
2018-08-30T11:52:14.227Z,82.99
2018-08-30T11:53:19.575Z,83.7457
2018-08-30T11:54:24.685Z,82.99
2018-08-30T11:55:44.198Z,83.4946
2018-08-30T11:56:49.684Z,83.7457
2018-08-30T11:57:55.472Z,83.4946
2018-08-30T11:59:00.656Z,83.4946
2018-08-30T12:00:05.942Z,84.2504
2018-08-30T12:01:11.391Z,83.4946
2018-08-30T12:02:16.532Z,82.7389
2018-08-30T12:03:21.864Z,84.2504
2018-08-30T12:04:27.163Z,82.99
2018-08-30T12:05:32.696Z,82.4034
2018-08-30T12:06:38.465Z,82.6544
2018-08-30T12:07:43.660Z,83.7457
2018-08-30T12:08:48.553Z,82.6544
2018-08-30T12:09:54.256Z,82.6544
2018-08-30T12:11:00.300Z,82.1523
2018-08-30T12:12:05.828Z,82.7389
2018-08-30T12:13:11.421Z,82.7389
2018-08-30T12:14:16.583Z,82.1523
2018-08-30T12:15:21.797Z,82.1523
2018-08-30T12:16:41.913Z,82.1523
2018-08-30T12:17:46.517Z,82.1523
2018-08-30T12:18:52.336Z,82.5698
2018-08-30T12:19:57.243Z,82.4034
2018-08-30T12:21:02.070Z,82.1523
2018-08-30T12:22:07.467Z,82.1523
2018-08-30T12:23:12.908Z,82.6544
2018-08-30T12:24:17.810Z,82.5698
2018-08-30T12:25:22.978Z,81.3966
2018-08-30T12:26:28.414Z,82.1523
2018-08-30T12:27:34.192Z,82.7389
2018-08-30T12:28:39.995Z,82.7389
2018-08-30T12:29:45.688Z,83.4946
2018-08-30T12:30:51.523Z,82.4034
2018-08-30T12:31:57.213Z,82.1523
2018-08-30T12:33:02.776Z,82.4034
2018-08-30T12:34:08.705Z,82.4034
2018-08-30T12:35:15.479Z,81.9013
2018-08-30T12:36:21.284Z,82.1523
2018-08-30T12:37:26.898Z,81.6477
2018-08-30T12:38:32.360Z,81.3966
2018-08-30T12:39:38.023Z,81.3966
2018-08-30T12:40:43.762Z,81.9013
2018-08-30T12:41:49.246Z,80.8946
2018-08-30T12:42:56.656Z,81.6477
2018-08-30T12:44:02.681Z,81.3966
2018-08-30T12:45:07.857Z,80.8946
2018-08-30T12:46:14.169Z,81.3966
2018-08-30T12:47:19.574Z,81.6477
2018-08-30T12:48:40.106Z,81.1456
2018-08-30T12:49:45.068Z,81.3966
2018-08-30T12:50:51.503Z,80.8946
2018-08-30T12:51:58.500Z,81.3966
2018-08-30T12:53:04.179Z,80.8946
2018-08-30T12:54:10.597Z,81.3966
2018-08-30T12:55:17.797Z,79.9698
2018-08-30T12:56:24.218Z,80.3899
2018-08-30T12:57:30.855Z,80.8946
2018-08-30T12:58:37.147Z,80.6409
2018-08-30T12:59:43.579Z,81.1456
2018-08-30T13:00:50.557Z,81.1456
2018-08-30T13:01:55.656Z,81.1456
2018-08-30T13:03:03.219Z,81.1456
2018-08-30T13:04:10.683Z,80.8946
2018-08-30T13:05:18.900Z,80.3899
2018-08-30T13:06:27.309Z,79.9698